Overview Statistics Trail Chart Weather Telemetry Raw packets
 

This is the latest recevied weather packets stored in our database for station/object ED1ZAI-13. If no packets are shown the sender has not sent any weather packets the latest 10 day(s).

<< 1 2 3 4 >>
Time Temp. Humidity Pressure Rain* Wind** Luminosity Snow
1788629364 32.22° C 12% 1022.8 hPa - - - -
1788628764 32.22° C 12% 1022.7 hPa - - - -
1788628164 31.67° C 12% 1022.8 hPa - - - -
1788627564 31.67° C 12% 1022.8 hPa - - - -
1788626963 31.67° C 11% 1022.7 hPa - - - -
1788626221 32.22° C 11% 1022.7 hPa - - - -
1788625621 32.78° C 11% 1022.7 hPa - - - -
1788625020 33.33° C 11% 1022.6 hPa - - - -
1788624420 34.44° C - - - - - -
1788623820 36.11° C - - - - - -
1788623221 34.44° C 10% 1022.5 hPa - - - -
1788622621 33.89° C 10% 1022.5 hPa - - - -
1788622021 33.89° C 10% 1022.5 hPa - - - -
1788621421 33.33° C 10% 1022.6 hPa - - - -
1788620821 34.44° C 10% 1022.6 hPa - - - -
1788620221 33.33° C 10% 1022.8 hPa - - - -
1788619621 33.89° C 10% 1022.9 hPa - - - -
1788619020 33.33° C 10% 1023 hPa - - - -
1788618420 33.33° C 11% 1023 hPa - - - -
1788617820 33.89° C 10% 1023.1 hPa - - - -
1788617220 33.33° C 10% 1023.1 hPa - - - -
1788616619 33.33° C 11% 1023.2 hPa - - - -
1788616019 34.44° C - - - - - -
1788615419 35.56° C - - - - - -
1788614819 35° C - - - - - -

* Rain since midnight (hover to see other rain measurements)
** Current wind speed in m/s (hover to see current wind gust speed)